Time;durP1;ratioP1;P1;durP2;ratioP2;P2;SDS_P1;SDS_P2;PMS_P1;PMS_P2;Temp;Humidity;BMP_temperature;BMP_pressure;BME280_temperature;BME280_humidity;BME280_pressure;Samples;Min_cycle;Max_cycle;Signal;HPM_P1;HPM_P2
2023/05/14 00:01:04;;;;;;;0.10;0.10;;;11.10;99.90;;;;;;4979104;28;20193;-80
2023/05/14 00:03:30;;;;;;;0.00;0.00;;;11.10;99.90;;;;;;4991076;28;20200;-79
2023/05/14 00:05:55;;;;;;;0.03;0.03;;;11.10;99.90;;;;;;4986727;28;20185;-79
2023/05/14 00:08:21;;;;;;;0.03;0.03;;;11.10;99.90;;;;;;4973787;28;20567;-79
2023/05/14 00:10:46;;;;;;;0.10;0.10;;;11.00;99.90;;;;;;4983271;28;20292;-79
2023/05/14 00:13:12;;;;;;;0.10;0.10;;;11.00;99.90;;;;;;4955601;28;20556;-80
2023/05/14 00:15:37;;;;;;;0.10;0.10;;;11.00;99.90;;;;;;4953247;28;20197;-79
2023/05/14 00:18:03;;;;;;;0.10;0.10;;;11.00;99.90;;;;;;4981889;28;20185;-80
2023/05/14 00:20:29;;;;;;;0.00;0.00;;;10.90;99.90;;;;;;4966836;28;20579;-79
2023/05/14 00:22:54;;;;;;;0.10;0.10;;;10.90;99.90;;;;;;4945263;28;20212;-80
2023/05/14 00:25:20;;;;;;;0.10;0.10;;;11.00;99.90;;;;;;4969277;28;20170;-79
2023/05/14 00:27:45;;;;;;;0.00;0.00;;;10.80;99.90;;;;;;4970475;28;20542;-79
2023/05/14 00:30:11;;;;;;;0.03;0.03;;;10.90;99.90;;;;;;4980750;28;20204;-79
2023/05/14 00:32:36;;;;;;;0.10;0.10;;;10.80;99.90;;;;;;4971495;28;20270;-80
2023/05/14 00:35:03;;;;;;;0.10;0.10;;;10.90;99.90;;;;;;4967935;28;20190;-80
2023/05/14 00:37:28;;;;;;;0.10;0.10;;;10.80;99.90;;;;;;4968094;28;20182;-80
2023/05/14 00:39:54;;;;;;;0.10;0.10;;;10.80;99.90;;;;;;4973443;28;20960;-80
2023/05/14 00:42:20;;;;;;;0.03;0.03;;;10.70;99.90;;;;;;4971060;28;20200;-79
2023/05/14 00:44:45;;;;;;;0.07;0.07;;;10.80;99.90;;;;;;4980046;28;20189;-79
2023/05/14 00:47:11;;;;;;;0.10;0.10;;;10.70;99.90;;;;;;4973513;28;20195;-80
2023/05/14 00:49:38;;;;;;;0.10;0.10;;;10.70;99.90;;;;;;4963641;28;20304;-80
2023/05/14 00:52:04;;;;;;;0.10;0.10;;;10.70;99.90;;;;;;4976958;28;20857;-80
2023/05/14 00:54:30;;;;;;;0.07;0.07;;;10.60;99.90;;;;;;5000256;28;20447;-79
2023/05/14 00:56:56;;;;;;;0.10;0.10;;;10.60;99.90;;;;;;4955002;28;20185;-80
2023/05/14 00:59:21;;;;;;;0.10;0.10;;;10.70;99.90;;;;;;4970048;28;20555;-79
2023/05/14 01:01:47;;;;;;;0.03;0.03;;;10.70;99.90;;;;;;4974968;28;20464;-80
2023/05/14 01:04:13;;;;;;;0.10;0.10;;;10.70;99.90;;;;;;4978461;28;20320;-80
2023/05/14 01:06:41;;;;;;;0.10;0.10;;;10.60;99.90;;;;;;4974197;28;20802;-80
2023/05/14 01:09:13;;;;;;;0.10;0.10;;;10.60;99.90;;;;;;4956088;28;20909;-80
2023/05/14 01:11:58;;;;;;;0.00;0.00;;;10.50;99.90;;;;;;4969852;28;20502;-80
2023/05/14 01:14:40;;;;;;;0.10;0.10;;;10.50;99.90;;;;;;4975216;28;20471;-80
2023/05/14 01:17:09;;;;;;;0.10;0.10;;;10.60;99.90;;;;;;4984551;28;20872;-80
2023/05/14 01:19:46;;;;;;;0.07;0.07;;;10.50;99.90;;;;;;4960013;28;20450;-79
2023/05/14 01:22:11;;;;;;;0.10;0.10;;;10.50;99.90;;;;;;4966033;28;20440;-80
2023/05/14 01:24:37;;;;;;;0.10;0.10;;;10.50;99.90;;;;;;4972332;28;20557;-79
2023/05/14 01:27:22;;;;;;;0.10;0.10;;;;;;;;;;4981316;28;20277;-79
2023/05/14 01:30:17;;;;;;;0.10;0.10;;;;;;;;;;4978488;28;20223;-79
2023/05/14 01:32:44;;;;;;;0.10;0.10;;;;;;;;;;4954215;28;20441;-80
2023/05/14 01:35:11;;;;;;;0.10;0.10;;;;;;;;;;4982984;28;20445;-79
2023/05/14 01:37:38;;;;;;;0.10;0.10;;;;;;;;;;4972565;28;20447;-79
2023/05/14 01:40:04;;;;;;;0.10;0.10;;;;;;;;;;4955416;28;20455;-79
2023/05/14 01:42:30;;;;;;;0.10;0.10;;;;;;;;;;4956359;28;20930;-80
2023/05/14 01:44:56;;;;;;;0.10;0.10;;;10.20;99.90;;;;;;4990827;28;20548;-80
2023/05/14 01:47:22;;;;;;;0.10;0.10;;;10.10;99.90;;;;;;4992102;28;20535;-79
2023/05/14 01:49:47;;;;;;;0.10;0.10;;;10.10;99.90;;;;;;4978894;28;20543;-79
2023/05/14 01:52:13;;;;;;;0.10;0.10;;;10.10;99.90;;;;;;4977525;28;20198;-79
2023/05/14 01:54:38;;;;;;;0.10;0.10;;;10.10;99.90;;;;;;4996747;28;20247;-79
2023/05/14 01:57:04;;;;;;;0.10;0.10;;;10.20;99.90;;;;;;5006727;28;20226;-79
2023/05/14 01:59:30;;;;;;;0.10;0.10;;;10.00;99.90;;;;;;4993863;28;20177;-80
2023/05/14 02:01:55;;;;;;;0.10;0.10;;;10.00;99.90;;;;;;4991030;28;20235;-80
2023/05/14 02:04:21;;;;;;;0.10;0.10;;;10.00;99.90;;;;;;4994417;28;20178;-79
2023/05/14 02:06:46;;;;;;;0.10;0.10;;;9.90;99.90;;;;;;4973815;28;20198;-80
2023/05/14 02:09:12;;;;;;;0.10;0.10;;;9.70;99.90;;;;;;4989690;28;20236;-79
2023/05/14 02:11:39;;;;;;;0.10;0.10;;;9.80;99.90;;;;;;4976697;28;20198;-79
2023/05/14 02:14:06;;;;;;;0.10;0.10;;;;;;;;;;4973662;28;20198;-79
2023/05/14 02:16:32;;;;;;;0.10;0.10;;;9.90;99.90;;;;;;4970750;28;20529;-79
2023/05/14 02:18:58;;;;;;;0.10;0.10;;;9.90;99.90;;;;;;4967076;28;20536;-79
2023/05/14 02:21:23;;;;;;;0.10;0.10;;;9.70;99.90;;;;;;4959960;28;20198;-78
2023/05/14 02:23:51;;;;;;;0.10;0.10;;;;;;;;;;4981616;28;20185;-78
2023/05/14 02:26:17;;;;;;;0.10;0.10;;;;;;;;;;4967294;28;20190;-78
2023/05/14 02:28:44;;;;;;;0.10;0.10;;;;;;;;;;4958767;28;20447;-78
2023/05/14 02:31:10;;;;;;;0.10;0.10;;;;;;;;;;4969548;28;21070;-78
2023/05/14 02:33:36;;;;;;;0.00;0.00;;;;;;;;;;4955145;28;20444;-79
2023/05/14 02:36:02;;;;;;;0.10;0.10;;;;;;;;;;4969447;28;20463;-78
2023/05/14 02:38:28;;;;;;;0.10;0.10;;;;;;;;;;4966249;28;20451;-78
2023/05/14 02:40:54;;;;;;;0.10;0.10;;;;;;;;;;4976311;28;20462;-78
2023/05/14 02:43:20;;;;;;;0.10;0.10;;;;;;;;;;4968350;28;20445;-78
2023/05/14 02:45:46;;;;;;;0.10;0.10;;;9.50;99.90;;;;;;4967140;28;20475;-78
2023/05/14 02:48:11;;;;;;;0.10;0.10;;;9.50;99.90;;;;;;4981813;28;20511;-78
2023/05/14 02:50:37;;;;;;;0.10;0.10;;;9.50;99.90;;;;;;4951330;28;20486;-78
2023/05/14 02:53:02;;;;;;;0.10;0.10;;;9.60;99.90;;;;;;4953946;28;20193;-78
2023/05/14 02:55:28;;;;;;;0.10;0.10;;;9.80;99.90;;;;;;4960423;28;20186;-78
2023/05/14 02:57:53;;;;;;;0.07;0.07;;;9.80;99.90;;;;;;4966662;28;20190;-78
2023/05/14 03:00:19;;;;;;;0.10;0.10;;;9.70;99.90;;;;;;4950811;28;20186;-78
2023/05/14 03:02:44;;;;;;;0.10;0.10;;;9.60;99.90;;;;;;4974550;28;20241;-78
2023/05/14 03:05:10;;;;;;;0.10;0.10;;;9.70;99.90;;;;;;4970933;28;20245;-78
2023/05/14 03:07:35;;;;;;;0.10;0.10;;;9.60;99.90;;;;;;4968547;28;20222;-78
2023/05/14 03:10:01;;;;;;;0.10;0.10;;;9.70;99.90;;;;;;4965042;28;20272;-78
2023/05/14 03:12:26;;;;;;;0.10;0.10;;;9.60;99.90;;;;;;4976169;28;20193;-79
2023/05/14 03:14:52;;;;;;;0.10;0.10;;;9.70;99.90;;;;;;4956767;28;20198;-78
2023/05/14 03:17:17;;;;;;;0.10;0.10;;;9.80;99.90;;;;;;4968345;28;20627;-79
2023/05/14 03:19:43;;;;;;;0.10;0.10;;;10.10;99.90;;;;;;4972863;28;20630;-78
2023/05/14 03:22:08;;;;;;;0.10;0.10;;;9.80;99.90;;;;;;4962716;28;20195;-78
2023/05/14 03:24:34;;;;;;;0.10;0.10;;;9.70;99.90;;;;;;4959783;28;20193;-78
2023/05/14 03:26:59;;;;;;;0.10;0.10;;;9.90;99.90;;;;;;4979184;28;20189;-78
2023/05/14 03:29:25;;;;;;;0.10;0.10;;;9.90;99.90;;;;;;4978290;28;20673;-78
2023/05/14 03:31:51;;;;;;;0.10;0.10;;;9.90;99.90;;;;;;4970981;28;20193;-78
2023/05/14 03:34:17;;;;;;;0.10;0.10;;;9.90;99.90;;;;;;4973953;28;20191;-78
2023/05/14 03:36:42;;;;;;;0.10;0.10;;;9.80;99.90;;;;;;4976702;28;20452;-78
2023/05/14 03:39:08;;;;;;;0.10;0.10;;;9.80;99.90;;;;;;4999488;28;20192;-78
2023/05/14 03:41:34;;;;;;;0.10;0.10;;;9.80;99.90;;;;;;4969175;28;20285;-77
2023/05/14 03:44:00;;;;;;;0.10;0.10;;;9.70;99.90;;;;;;4962320;28;20233;-78
2023/05/14 03:46:25;;;;;;;0.10;0.10;;;9.70;99.90;;;;;;4969188;28;20482;-78
2023/05/14 03:48:51;;;;;;;0.10;0.10;;;9.60;99.90;;;;;;4970802;28;20721;-79
2023/05/14 03:51:17;;;;;;;0.10;0.10;;;9.70;99.90;;;;;;4974767;28;20787;-79
2023/05/14 03:53:42;;;;;;;0.10;0.10;;;9.60;99.90;;;;;;4963230;28;20186;-79
2023/05/14 03:56:08;;;;;;;0.10;0.10;;;;;;;;;;4958473;28;20667;-78
2023/05/14 03:58:33;;;;;;;0.10;0.10;;;9.60;99.90;;;;;;4966835;28;20256;-78
2023/05/14 04:00:59;;;;;;;0.10;0.10;;;9.50;99.90;;;;;;4972723;28;20445;-78
2023/05/14 04:03:25;;;;;;;0.13;0.13;;;9.60;99.90;;;;;;4972313;28;20191;-78
2023/05/14 04:05:50;;;;;;;0.10;0.10;;;9.50;99.90;;;;;;4969431;28;20595;-78
2023/05/14 04:08:16;;;;;;;0.10;0.10;;;9.50;99.90;;;;;;4952673;28;20313;-78
2023/05/14 04:10:42;;;;;;;0.10;0.10;;;9.40;99.90;;;;;;4972666;28;20268;-78
2023/05/14 04:13:07;;;;;;;0.10;0.10;;;9.50;99.90;;;;;;4960064;28;20183;-78
2023/05/14 04:15:34;;;;;;;0.10;0.10;;;9.40;99.90;;;;;;4987478;28;20475;-78
2023/05/14 04:18:00;;;;;;;0.10;0.10;;;9.50;99.90;;;;;;4972044;28;20808;-78
2023/05/14 04:20:26;;;;;;;0.10;0.10;;;9.50;99.90;;;;;;4955113;28;20454;-78
2023/05/14 04:22:52;;;;;;;0.03;0.03;;;9.50;99.90;;;;;;4957755;28;20218;-78
2023/05/14 04:25:18;;;;;;;0.10;0.10;;;9.60;99.90;;;;;;4971030;28;20193;-78
2023/05/14 04:27:44;;;;;;;0.10;0.10;;;9.50;99.90;;;;;;4972966;28;20816;-79
2023/05/14 04:30:10;;;;;;;0.10;0.10;;;9.50;99.90;;;;;;4973100;28;20479;-78
2023/05/14 04:32:35;;;;;;;0.10;0.10;;;9.70;99.90;;;;;;4984049;28;20183;-79
2023/05/14 04:35:01;;;;;;;0.10;0.10;;;9.80;99.90;;;;;;4989117;28;20596;-78
2023/05/14 04:37:27;;;;;;;0.10;0.10;;;10.10;99.90;;;;;;4970197;28;20419;-78
2023/05/14 04:39:52;;;;;;;0.10;0.10;;;10.20;99.90;;;;;;4958820;28;20190;-78
2023/05/14 04:42:17;;;;;;;0.10;0.10;;;10.30;99.90;;;;;;4974275;28;20273;-78
2023/05/14 04:44:43;;;;;;;0.10;0.10;;;10.40;99.90;;;;;;4972514;28;20186;-78
2023/05/14 04:47:08;;;;;;;0.10;0.10;;;10.40;99.90;;;;;;4966926;28;20578;-78
2023/05/14 04:49:34;;;;;;;0.10;0.10;;;10.40;99.90;;;;;;4971633;28;20225;-78
2023/05/14 04:52:00;;;;;;;0.10;0.10;;;10.40;99.90;;;;;;4970809;28;20330;-78
2023/05/14 04:54:25;;;;;;;0.10;0.10;;;10.60;99.90;;;;;;4977926;28;20185;-78
2023/05/14 04:56:51;;;;;;;0.10;0.10;;;10.70;99.90;;;;;;4977395;28;20449;-78
2023/05/14 04:59:17;;;;;;;0.10;0.10;;;10.90;99.90;;;;;;4984451;28;20185;-78
2023/05/14 05:01:42;;;;;;;0.10;0.10;;;11.10;99.90;;;;;;4967041;28;20235;-78
2023/05/14 05:04:07;;;;;;;0.10;0.10;;;11.20;99.90;;;;;;4943391;28;20217;-78
2023/05/14 05:06:33;;;;;;;0.10;0.10;;;11.40;99.90;;;;;;4958863;28;20208;-78
2023/05/14 05:08:58;;;;;;;0.10;0.10;;;11.40;99.90;;;;;;4976699;28;20236;-78
2023/05/14 05:11:24;;;;;;;0.10;0.10;;;11.70;99.90;;;;;;4974216;28;20221;-78
2023/05/14 05:13:49;;;;;;;0.00;0.00;;;12.00;99.90;;;;;;4971283;28;20214;-78
2023/05/14 05:16:15;;;;;;;0.07;0.07;;;12.20;99.90;;;;;;4966865;28;20230;-78
2023/05/14 05:18:40;;;;;;;0.00;0.00;;;12.40;99.90;;;;;;4974055;28;20185;-78
2023/05/14 05:21:06;;;;;;;0.10;0.10;;;12.50;99.90;;;;;;4967845;28;20186;-78
2023/05/14 05:23:31;;;;;;;0.00;0.00;;;12.80;99.90;;;;;;4977842;28;20185;-78
2023/05/14 05:25:57;;;;;;;0.00;0.00;;;12.80;99.90;;;;;;4976025;28;20198;-78
2023/05/14 05:28:22;;;;;;;0.10;0.10;;;13.00;99.90;;;;;;4983302;28;20192;-78
2023/05/14 05:30:48;;;;;;;0.10;0.10;;;13.10;99.90;;;;;;4970858;28;21434;-79
2023/05/14 05:33:14;;;;;;;0.10;0.10;;;13.20;99.90;;;;;;4962982;28;20178;-79
2023/05/14 05:35:39;;;;;;;0.10;0.10;;;13.20;99.90;;;;;;4947933;28;20326;-80
2023/05/14 05:38:05;;;;;;;0.00;0.00;;;13.40;99.90;;;;;;4969772;28;20192;-80
2023/05/14 05:40:30;;;;;;;0.00;0.00;;;13.60;99.90;;;;;;4959954;28;20232;-81
2023/05/14 05:42:56;;;;;;;0.00;0.00;;;13.60;99.90;;;;;;4979660;28;20189;-78
2023/05/14 05:45:21;;;;;;;0.10;0.10;;;13.70;99.90;;;;;;4982873;28;20194;-79
2023/05/14 05:47:47;;;;;;;0.10;0.10;;;13.80;99.90;;;;;;4984542;28;20190;-80
2023/05/14 05:50:13;;;;;;;0.00;0.00;;;13.90;99.90;;;;;;4971861;28;20225;-81
2023/05/14 05:52:39;;;;;;;0.00;0.00;;;14.10;99.90;;;;;;4964190;28;20190;-80
2023/05/14 05:55:05;;;;;;;0.00;0.00;;;14.20;99.90;;;;;;4970462;28;20463;-81
2023/05/14 05:57:31;;;;;;;0.03;0.03;;;14.40;99.90;;;;;;4968224;28;20187;-80
2023/05/14 05:59:56;;;;;;;0.00;0.00;;;14.50;99.90;;;;;;4993839;28;20420;-79
2023/05/14 06:02:23;;;;;;;0.00;0.00;;;14.50;99.90;;;;;;4972199;28;20190;-80
2023/05/14 06:04:49;;;;;;;0.03;0.03;;;14.60;99.90;;;;;;4973375;28;20449;-81
2023/05/14 06:07:15;;;;;;;0.00;0.00;;;14.70;99.90;;;;;;4986152;28;20479;-81
2023/05/14 06:09:41;;;;;;;0.00;0.00;;;14.70;99.90;;;;;;4972575;28;20222;-79
2023/05/14 06:12:07;;;;;;;0.00;0.00;;;14.90;99.90;;;;;;4976586;28;20453;-80
2023/05/14 06:14:32;;;;;;;0.00;0.00;;;14.80;99.90;;;;;;4971173;28;20560;-80
2023/05/14 06:16:58;;;;;;;0.00;0.00;;;15.00;99.90;;;;;;4977661;28;20196;-81
2023/05/14 06:19:23;;;;;;;0.00;0.00;;;15.00;99.90;;;;;;4968360;28;20194;-80
2023/05/14 06:21:49;;;;;;;0.00;0.00;;;15.10;99.90;;;;;;4969343;28;20244;-80
2023/05/14 06:24:15;;;;;;;0.00;0.00;;;15.10;99.90;;;;;;4984888;28;20663;-81
2023/05/14 06:26:40;;;;;;;0.00;0.00;;;15.20;99.90;;;;;;4980253;28;20673;-80
2023/05/14 06:29:06;;;;;;;0.00;0.00;;;15.40;99.90;;;;;;4982999;28;21000;-80
2023/05/14 06:31:31;;;;;;;0.00;0.00;;;15.60;99.90;;;;;;4975568;28;20225;-79
2023/05/14 06:33:57;;;;;;;0.00;0.00;;;15.60;99.90;;;;;;4974987;28;20346;-79
2023/05/14 06:36:22;;;;;;;0.00;0.00;;;15.70;99.90;;;;;;4975694;28;20647;-80
2023/05/14 06:38:48;;;;;;;0.00;0.00;;;15.90;99.90;;;;;;4967673;28;20189;-80
2023/05/14 06:41:13;;;;;;;0.00;0.00;;;16.00;99.90;;;;;;4967945;28;20204;-80
2023/05/14 06:43:39;;;;;;;0.00;0.00;;;16.10;99.90;;;;;;4954789;28;20205;-80
2023/05/14 06:46:04;;;;;;;0.00;0.00;;;16.10;99.90;;;;;;4976599;28;20193;-80
2023/05/14 06:48:30;;;;;;;0.00;0.00;;;16.30;99.90;;;;;;4965703;28;20640;-80
2023/05/14 06:50:55;;;;;;;0.00;0.00;;;16.40;99.90;;;;;;4978971;28;20253;-79
2023/05/14 06:53:21;;;;;;;0.00;0.00;;;16.60;99.90;;;;;;4972505;28;20547;-80
2023/05/14 06:55:47;;;;;;;0.00;0.00;;;16.60;99.90;;;;;;4973049;28;20229;-80
2023/05/14 06:58:12;;;;;;;0.00;0.00;;;16.80;99.90;;;;;;4952203;28;20194;-79
2023/05/14 07:00:38;;;;;;;0.00;0.00;;;16.80;99.90;;;;;;4963199;28;20452;-80
2023/05/14 07:03:04;;;;;;;0.00;0.00;;;16.90;99.90;;;;;;4971219;28;20698;-79
2023/05/14 07:05:30;;;;;;;0.00;0.00;;;17.00;99.90;;;;;;4955393;28;20193;-79
2023/05/14 07:07:56;;;;;;;0.00;0.00;;;17.30;99.90;;;;;;4954752;28;20572;-79
2023/05/14 07:10:21;;;;;;;0.00;0.00;;;17.40;99.90;;;;;;4971148;28;20238;-80
2023/05/14 07:12:48;;;;;;;0.00;0.00;;;17.50;99.90;;;;;;4982684;28;20194;-80
2023/05/14 07:15:13;;;;;;;0.00;0.00;;;17.70;99.90;;;;;;4971523;28;20198;-79
2023/05/14 07:17:39;;;;;;;0.00;0.00;;;17.70;99.90;;;;;;4976189;28;20512;-80
2023/05/14 07:20:06;;;;;;;0.00;0.00;;;17.70;99.90;;;;;;4977229;28;20694;-78
2023/05/14 07:22:31;;;;;;;0.00;0.00;;;18.00;99.90;;;;;;4971534;28;20453;-79
2023/05/14 07:24:57;;;;;;;0.00;0.00;;;18.20;99.90;;;;;;4971039;28;20446;-80
2023/05/14 07:27:22;;;;;;;0.00;0.00;;;18.20;99.90;;;;;;4970199;28;20252;-79
2023/05/14 07:29:49;;;;;;;0.00;0.00;;;18.20;99.90;;;;;;4970943;28;20793;-80
2023/05/14 07:32:14;;;;;;;0.00;0.00;;;18.30;99.90;;;;;;4972132;28;20186;-80
2023/05/14 07:34:40;;;;;;;0.00;0.00;;;18.20;99.90;;;;;;4965313;28;20536;-80
2023/05/14 07:37:05;;;;;;;0.00;0.00;;;18.50;99.90;;;;;;4967507;28;20202;-80
2023/05/14 07:39:31;;;;;;;0.00;0.00;;;18.60;99.90;;;;;;4973408;28;20228;-80
2023/05/14 07:41:56;;;;;;;0.00;0.00;;;18.60;99.90;;;;;;4975510;28;20193;-80
2023/05/14 07:44:22;;;;;;;0.00;0.00;;;18.80;99.90;;;;;;4983109;28;20193;-79
2023/05/14 07:46:47;;;;;;;0.00;0.00;;;19.00;99.90;;;;;;4975338;28;20582;-79
2023/05/14 07:49:13;;;;;;;0.00;0.00;;;18.90;99.90;;;;;;4982283;28;20272;-79
2023/05/14 07:51:38;;;;;;;0.00;0.00;;;19.10;99.90;;;;;;4981023;28;20200;-80
2023/05/14 07:54:04;;;;;;;0.00;0.00;;;19.30;99.90;;;;;;4972216;28;20273;-79
2023/05/14 07:56:30;;;;;;;0.00;0.00;;;19.30;99.90;;;;;;4955706;28;20707;-79
2023/05/14 07:58:55;;;;;;;0.00;0.00;;;19.20;99.90;;;;;;4968943;28;20718;-80
2023/05/14 08:01:21;;;;;;;0.00;0.00;;;19.40;99.90;;;;;;4969893;28;20189;-79
2023/05/14 08:03:47;;;;;;;0.00;0.00;;;19.70;99.90;;;;;;4972018;28;20616;-79
2023/05/14 08:06:13;;;;;;;0.00;0.00;;;19.70;99.90;;;;;;4971968;28;20429;-79
2023/05/14 08:08:38;;;;;;;0.00;0.00;;;19.90;99.90;;;;;;4970652;28;20633;-79
2023/05/14 08:11:04;;;;;;;0.00;0.00;;;20.20;99.90;;;;;;4952405;28;20218;-80
2023/05/14 08:13:30;;;;;;;0.00;0.00;;;20.20;99.90;;;;;;4970545;28;20194;-79
2023/05/14 08:15:55;;;;;;;0.00;0.00;;;20.30;99.90;;;;;;4971475;28;20689;-79
2023/05/14 08:18:21;;;;;;;0.00;0.00;;;20.30;99.90;;;;;;4971497;28;20235;-79
2023/05/14 08:20:47;;;;;;;0.00;0.00;;;20.50;99.50;;;;;;4970934;28;20224;-79
2023/05/14 08:23:12;;;;;;;0.00;0.00;;;20.60;98.80;;;;;;4970740;28;20552;-79
2023/05/14 08:25:38;;;;;;;0.00;0.00;;;20.30;97.90;;;;;;4954430;28;20441;-80
2023/05/14 08:28:04;;;;;;;0.00;0.00;;;20.40;96.60;;;;;;4954327;28;20186;-79
2023/05/14 08:30:29;;;;;;;0.00;0.00;;;20.30;97.10;;;;;;4966945;28;20227;-79
2023/05/14 08:32:55;;;;;;;0.00;0.00;;;20.60;99.10;;;;;;4955229;28;20178;-79
2023/05/14 08:35:21;;;;;;;0.00;0.00;;;20.90;96.60;;;;;;4994693;28;20668;-79
2023/05/14 08:37:46;;;;;;;0.00;0.00;;;21.00;96.50;;;;;;4981139;28;20733;-80
2023/05/14 08:40:12;;;;;;;0.00;0.00;;;21.10;96.10;;;;;;4963910;28;20204;-79
2023/05/14 08:42:43;;;;;;;0.00;0.00;;;21.30;95.20;;;;;;4968307;28;20196;-80
2023/05/14 08:45:17;;;;;;;0.00;0.00;;;21.30;94.70;;;;;;4970128;28;20659;-79
2023/05/14 08:47:49;;;;;;;0.00;0.00;;;21.40;93.80;;;;;;4951838;28;20489;-80
2023/05/14 08:50:15;;;;;;;0.00;0.00;;;21.70;95.00;;;;;;4954547;28;20489;-80
2023/05/14 08:52:41;;;;;;;0.00;0.00;;;21.70;94.80;;;;;;4962206;28;20489;-79
2023/05/14 08:55:08;;;;;;;0.00;0.00;;;21.70;93.40;;;;;;4966337;28;21031;-79
2023/05/14 08:57:34;;;;;;;0.00;0.00;;;21.50;93.10;;;;;;4966271;28;20496;-79
2023/05/14 09:00:04;;;;;;;0.00;0.00;;;21.90;93.40;;;;;;4964996;28;20442;-79
2023/05/14 09:02:30;;;;;;;0.00;0.00;;;22.00;93.30;;;;;;4950562;28;20444;-80
2023/05/14 09:04:58;;;;;;;0.00;0.00;;;22.10;94.70;;;;;;4943993;28;20441;-79
2023/05/14 09:07:24;;;;;;;0.00;0.00;;;22.00;92.80;;;;;;4951345;28;20238;-79
2023/05/14 09:09:53;;;;;;;0.00;0.00;;;22.20;92.30;;;;;;4954612;28;20523;-79
2023/05/14 09:12:19;;;;;;;0.00;0.00;;;22.20;93.90;;;;;;4971329;28;20819;-80
2023/05/14 09:14:46;;;;;;;0.00;0.00;;;22.20;92.70;;;;;;4970618;28;20464;-79
2023/05/14 09:17:11;;;;;;;0.00;0.00;;;22.20;91.60;;;;;;4951756;28;20219;-80
2023/05/14 09:19:41;;;;;;;0.00;0.00;;;22.50;93.00;;;;;;4956566;28;20505;-79
2023/05/14 09:22:14;;;;;;;0.00;0.00;;;22.50;89.00;;;;;;4971355;28;20185;-80
2023/05/14 09:24:41;;;;;;;0.00;0.00;;;22.40;91.90;;;;;;4967319;28;20451;-79
2023/05/14 09:27:07;;;;;;;0.00;0.00;;;21.80;91.40;;;;;;4958592;28;20456;-79
2023/05/14 09:29:33;;;;;;;0.00;0.00;;;21.70;93.70;;;;;;4969508;28;20527;-80
2023/05/14 09:32:03;;;;;;;0.00;0.00;;;21.50;94.10;;;;;;4970868;28;20987;-79
2023/05/14 09:34:31;;;;;;;0.00;0.00;;;21.80;93.90;;;;;;4976154;28;20432;-79
2023/05/14 09:37:00;;;;;;;0.00;0.00;;;21.60;92.30;;;;;;4980291;28;20479;-79
2023/05/14 09:39:26;;;;;;;0.00;0.00;;;21.60;91.50;;;;;;4972850;28;20453;-79
2023/05/14 09:41:52;;;;;;;0.00;0.00;;;21.70;91.40;;;;;;4980982;28;20448;-79
2023/05/14 09:44:18;;;;;;;0.00;0.00;;;21.80;90.40;;;;;;4982256;28;20600;-79
2023/05/14 09:46:45;;;;;;;0.00;0.00;;;21.70;90.10;;;;;;4971024;28;20192;-79
2023/05/14 09:49:11;;;;;;;0.00;0.00;;;21.50;91.10;;;;;;4973858;28;20804;-79
2023/05/14 09:51:37;;;;;;;0.00;0.00;;;21.60;91.10;;;;;;4964003;28;20490;-80
2023/05/14 09:54:06;;;;;;;0.00;0.00;;;21.90;90.20;;;;;;4966941;28;20197;-80
2023/05/14 09:56:32;;;;;;;0.00;0.00;;;21.70;91.40;;;;;;4973490;28;20448;-80
2023/05/14 09:58:58;;;;;;;0.00;0.00;;;21.60;90.60;;;;;;4974865;28;20565;-80
2023/05/14 10:01:24;;;;;;;0.00;0.00;;;21.70;87.80;;;;;;4976299;28;20927;-79
2023/05/14 10:03:51;;;;;;;0.00;0.00;;;21.80;89.30;;;;;;4970756;28;20193;-80
2023/05/14 10:06:20;;;;;;;0.00;0.00;;;21.90;90.30;;;;;;4972437;28;21119;-80
2023/05/14 10:08:47;;;;;;;0.00;0.00;;;22.80;91.30;;;;;;4973484;28;20488;-79
2023/05/14 10:11:23;;;;;;;0.00;0.00;;;23.20;88.80;;;;;;4970446;28;20842;-80
2023/05/14 10:14:06;;;;;;;0.00;0.00;;;23.30;90.40;;;;;;4938614;28;20434;-79
2023/05/14 10:16:38;;;;;;;0.00;0.00;;;23.00;87.50;;;;;;4968759;28;21009;-79
2023/05/14 10:19:07;;;;;;;0.00;0.00;;;22.50;88.60;;;;;;4969201;28;20816;-79
2023/05/14 10:21:35;;;;;;;0.00;0.00;;;23.00;91.90;;;;;;4984466;28;20604;-80
2023/05/14 10:24:03;;;;;;;0.00;0.00;;;23.20;90.00;;;;;;4966715;28;20449;-79
2023/05/14 10:26:30;;;;;;;0.00;0.00;;;23.70;87.50;;;;;;4976596;28;20512;-79
2023/05/14 10:28:56;;;;;;;0.00;0.00;;;23.20;80.00;;;;;;4971415;28;20471;-79
2023/05/14 10:31:43;;;;;;;0.00;0.00;;;23.20;82.10;;;;;;4957657;28;20476;-81
2023/05/14 10:34:28;;;;;;;0.00;0.00;;;;;;;;;;4955686;28;20478;-80
2023/05/14 10:36:58;;;;;;;0.00;0.00;;;;;;;;;;4973681;28;20449;-80
2023/05/14 10:39:39;;;;;;;0.00;0.00;;;;;;;;;;4978365;28;20446;-81
2023/05/14 10:42:05;;;;;;;0.00;0.00;;;;;;;;;;4982483;28;20447;-81
2023/05/14 10:44:33;;;;;;;0.00;0.00;;;24.40;99.90;;;;;;4984745;28;20486;-82
2023/05/14 10:46:59;;;;;;;0.00;0.00;;;24.50;99.90;;;;;;4971442;28;20452;-83
2023/05/14 10:49:26;;;;;;;0.00;0.00;;;25.00;99.90;;;;;;4988829;28;20443;-82
2023/05/14 10:51:52;;;;;;;0.00;0.00;;;25.20;99.90;;;;;;4945791;28;20646;-85
2023/05/14 10:54:18;;;;;;;0.00;0.00;;;24.90;99.90;;;;;;4969676;28;20479;-82
2023/05/14 10:56:48;;;;;;;0.00;0.00;;;;;;;;;;4967044;28;20969;-82
2023/05/14 10:59:16;;;;;;;0.00;0.00;;;25.60;99.90;;;;;;4969793;28;20268;-82
2023/05/14 11:01:42;;;;;;;0.00;0.00;;;26.50;99.90;;;;;;4968372;28;20452;-81
2023/05/14 11:04:08;;;;;;;0.00;0.00;;;26.40;99.90;;;;;;4984810;28;20456;-83
2023/05/14 11:06:37;;;;;;;0.00;0.00;;;26.20;99.90;;;;;;4956239;28;20186;-81
2023/05/14 11:09:04;;;;;;;0.00;0.00;;;26.10;99.90;;;;;;4951270;28;20234;-81
2023/05/14 11:11:30;;;;;;;0.00;0.00;;;25.60;99.90;;;;;;4978193;28;21006;-82
2023/05/14 11:13:56;;;;;;;0.00;0.00;;;26.10;99.90;;;;;;4988042;28;20448;-82
2023/05/14 11:16:23;;;;;;;0.00;0.00;;;26.90;98.80;;;;;;4973598;28;20229;-78
2023/05/14 11:18:53;;;;;;;0.00;0.00;;;26.50;99.90;;;;;;4971760;28;20457;-81
2023/05/14 11:21:19;;;;;;;0.00;0.00;;;26.40;99.90;;;;;;4991859;28;20487;-82
2023/05/14 11:23:47;;;;;;;0.00;0.00;;;26.60;99.90;;;;;;4982808;28;20429;-82
2023/05/14 11:26:13;;;;;;;0.00;0.00;;;27.00;99.00;;;;;;4970987;28;20553;-81
2023/05/14 11:28:39;;;;;;;0.00;0.00;;;27.20;99.90;;;;;;4967784;28;20448;-81
2023/05/14 11:31:04;;;;;;;0.00;0.00;;;26.90;99.90;;;;;;4983827;28;20715;-81
2023/05/14 11:33:30;;;;;;;0.00;0.00;;;26.70;98.90;;;;;;5003219;28;20287;-80
2023/05/14 11:35:56;;;;;;;0.00;0.00;;;27.10;98.90;;;;;;5004326;28;20215;-79
2023/05/14 11:38:21;;;;;;;0.00;0.00;;;27.30;98.50;;;;;;4989055;28;20204;-82
2023/05/14 11:40:55;;;;;;;0.00;0.00;;;26.30;99.20;;;;;;4966933;28;20963;-81
2023/05/14 11:43:23;;;;;;;0.00;0.00;;;26.80;99.90;;;;;;4981745;28;20213;-81
2023/05/14 11:45:53;;;;;;;0.00;0.00;;;26.90;99.90;;;;;;4970509;28;20456;-78
2023/05/14 11:48:19;;;;;;;0.00;0.00;;;26.90;99.90;;;;;;4962127;28;20450;-79
2023/05/14 11:50:49;;;;;;;0.00;0.00;;;26.00;99.80;;;;;;4964759;28;20592;-81
2023/05/14 11:53:27;;;;;;;0.00;0.00;;;25.90;99.90;;;;;;4960241;28;20949;-79
2023/05/14 11:55:53;;;;;;;0.00;0.00;;;25.80;99.90;;;;;;4963210;28;20457;-82
2023/05/14 11:58:20;;;;;;;0.00;0.00;;;25.30;99.50;;;;;;4975115;28;20440;-80
2023/05/14 12:00:48;;;;;;;0.00;0.00;;;25.20;99.10;;;;;;4992578;28;20453;-81
2023/05/14 12:03:14;;;;;;;0.00;0.00;;;26.20;99.90;;;;;;4971165;28;20453;-78
2023/05/14 12:05:40;;;;;;;0.00;0.00;;;27.00;99.90;;;;;;4952006;28;20449;-78
2023/05/14 12:08:22;;;;;;;0.00;0.00;;;27.00;99.90;;;;;;4973031;28;20232;-79
2023/05/14 12:10:48;;;;;;;0.00;0.00;;;27.90;99.90;;;;;;4984125;28;20240;-78
2023/05/14 12:13:16;;;;;;;0.00;0.00;;;27.90;99.90;;;;;;4962247;28;20441;-78
2023/05/14 12:15:45;;;;;;;0.00;0.00;;;;;;;;;;4961965;28;20734;-78
2023/05/14 12:18:13;;;;;;;0.00;0.00;;;25.70;99.90;;;;;;4961450;28;20848;-78
2023/05/14 12:20:44;;;;;;;0.00;0.00;;;25.80;99.90;;;;;;4953215;28;20524;-79
2023/05/14 12:23:10;;;;;;;0.00;0.00;;;25.60;99.90;;;;;;4955264;28;20492;-79
2023/05/14 12:25:37;;;;;;;0.00;0.00;;;26.20;99.90;;;;;;4952477;28;20848;-80
2023/05/14 12:28:13;;;;;;;0.00;0.00;;;26.10;99.90;;;;;;4951915;28;20226;-79
2023/05/14 12:30:40;;;;;;;0.00;0.00;;;;;;;;;;4954194;28;20483;-79
2023/05/14 12:33:09;;;;;;;0.00;0.00;;;;;;;;;;4956187;28;20437;-78
2023/05/14 12:35:37;;;;;;;0.00;0.00;;;;;;;;;;4951852;28;20448;-79
2023/05/14 12:38:05;;;;;;;0.00;0.00;;;;;;;;;;4950425;28;20517;-78
2023/05/14 12:40:33;;;;;;;0.00;0.00;;;;;;;;;;4954659;28;20872;-78
2023/05/14 12:42:58;;;;;;;0.00;0.00;;;26.80;96.80;;;;;;4958314;28;20461;-78
2023/05/14 12:45:24;;;;;;;0.00;0.00;;;27.40;99.90;;;;;;4955215;28;20705;-78
2023/05/14 12:47:52;;;;;;;0.00;0.00;;;27.80;99.90;;;;;;4950400;28;20216;-77
2023/05/14 12:50:20;;;;;;;0.00;0.00;;;;;;;;;;4961187;28;20251;-77
2023/05/14 12:52:46;;;;;;;0.00;0.00;;;27.00;99.90;;;;;;4960496;28;20525;-78
2023/05/14 12:55:11;;;;;;;0.00;0.00;;;26.40;99.90;;;;;;4961909;28;20541;-79